createdAt,value
2023-02-18T00:01:17.403Z,79.40
2023-02-18T00:03:43.912Z,79.60
2023-02-18T00:06:10.392Z,79.90
2023-02-18T00:08:36.856Z,79.80
2023-02-18T00:11:03.344Z,79.60
2023-02-18T00:13:29.799Z,79.80
2023-02-18T00:15:56.277Z,79.80
2023-02-18T00:18:22.806Z,79.80
2023-02-18T00:20:49.282Z,79.70
2023-02-18T00:23:15.765Z,79.30
2023-02-18T00:25:42.255Z,79.60
2023-02-18T00:28:08.748Z,79.80
2023-02-18T00:30:35.301Z,79.50
2023-02-18T00:33:01.795Z,79.20
2023-02-18T00:35:28.278Z,79.20
2023-02-18T00:37:54.758Z,79.10
2023-02-18T00:40:21.255Z,79.00
2023-02-18T00:42:47.758Z,79.20
2023-02-18T00:45:14.227Z,79.20
2023-02-18T00:47:40.705Z,79.40
2023-02-18T00:50:07.187Z,79.60
2023-02-18T00:52:33.673Z,79.60
2023-02-18T00:55:00.183Z,79.60
2023-02-18T00:57:26.659Z,79.60
2023-02-18T00:59:53.144Z,79.50
2023-02-18T01:02:19.612Z,79.30
2023-02-18T01:04:46.156Z,79.30
2023-02-18T01:07:12.661Z,79.40
2023-02-18T01:09:39.200Z,79.40
2023-02-18T01:12:05.672Z,79.80
2023-02-18T01:14:32.149Z,79.60
2023-02-18T01:16:58.629Z,79.50
2023-02-18T01:19:25.113Z,79.30
2023-02-18T01:21:51.602Z,79.40
2023-02-18T01:24:18.094Z,79.40
2023-02-18T01:26:44.549Z,79.60
2023-02-18T01:29:11.018Z,79.40
2023-02-18T01:31:37.580Z,79.60
2023-02-18T01:34:04.126Z,79.90
2023-02-18T01:36:30.615Z,79.60
2023-02-18T01:38:57.109Z,79.90
2023-02-18T01:41:23.583Z,79.70
2023-02-18T01:43:50.069Z,79.70
2023-02-18T01:46:16.588Z,79.80
2023-02-18T01:48:43.112Z,79.80
2023-02-18T01:51:09.587Z,79.60
2023-02-18T01:53:36.060Z,79.50
2023-02-18T01:56:02.546Z,79.70
2023-02-18T01:58:29.012Z,80.00
2023-02-18T02:00:55.544Z,80.00
2023-02-18T02:03:22.025Z,79.80
2023-02-18T02:05:48.513Z,80.50
2023-02-18T02:08:15.001Z,80.00
2023-02-18T02:10:41.478Z,79.70
2023-02-18T02:13:07.944Z,79.60
2023-02-18T02:15:34.427Z,79.80
2023-02-18T02:18:00.921Z,79.60
2023-02-18T02:20:27.430Z,79.60
2023-02-18T02:22:53.896Z,79.40
2023-02-18T02:25:20.357Z,79.40
2023-02-18T02:27:46.828Z,79.50
2023-02-18T02:30:13.376Z,79.60
2023-02-18T02:32:39.862Z,79.80
2023-02-18T02:35:06.366Z,79.30
2023-02-18T02:37:32.853Z,79.50
2023-02-18T02:39:59.379Z,79.40
2023-02-18T02:42:25.856Z,79.50
2023-02-18T02:44:52.353Z,79.70
2023-02-18T02:47:18.835Z,80.00
2023-02-18T02:49:45.292Z,80.00
2023-02-18T02:52:11.813Z,79.90
2023-02-18T02:54:38.342Z,79.70
2023-02-18T02:57:04.857Z,79.10
2023-02-18T02:59:31.315Z,79.00
2023-02-18T03:01:57.814Z,79.30
2023-02-18T03:04:24.294Z,79.30
2023-02-18T03:06:50.783Z,79.20
2023-02-18T03:09:17.240Z,78.70
2023-02-18T03:11:43.696Z,78.80
2023-02-18T03:14:10.166Z,78.90
2023-02-18T03:16:36.742Z,78.90
2023-02-18T03:19:03.274Z,79.00
2023-02-18T03:21:29.744Z,79.30
2023-02-18T03:23:56.216Z,79.20
2023-02-18T03:26:22.693Z,79.20
2023-02-18T03:28:49.151Z,79.50
2023-02-18T03:31:15.656Z,79.70
2023-02-18T03:33:42.179Z,79.50
2023-02-18T03:36:09.035Z,79.40
2023-02-18T03:38:35.689Z,79.50
2023-02-18T03:41:02.178Z,79.40
2023-02-18T03:43:28.653Z,79.20
2023-02-18T03:45:55.188Z,79.50
2023-02-18T03:48:21.706Z,79.80
2023-02-18T03:50:48.194Z,79.70
2023-02-18T03:53:14.671Z,79.50
2023-02-18T03:55:41.142Z,79.10
2023-02-18T03:58:07.610Z,79.00
2023-02-18T04:00:34.112Z,78.90
2023-02-18T04:03:00.588Z,78.80
2023-02-18T04:05:27.075Z,79.00
2023-02-18T04:07:53.549Z,79.10
2023-02-18T04:10:20.034Z,79.10
2023-02-18T04:12:46.485Z,79.20
2023-02-18T04:15:12.973Z,79.40
2023-02-18T04:17:39.437Z,79.30
2023-02-18T04:20:05.917Z,79.30
2023-02-18T04:22:32.386Z,79.50
2023-02-18T04:24:58.846Z,79.60
2023-02-18T04:27:25.334Z,79.10
2023-02-18T04:29:51.919Z,79.10
2023-02-18T04:32:18.410Z,79.20
2023-02-18T04:34:44.882Z,79.50
2023-02-18T04:37:11.367Z,79.60
2023-02-18T04:39:37.829Z,79.70
2023-02-18T04:42:04.303Z,79.30
2023-02-18T04:44:30.777Z,79.20
2023-02-18T04:46:57.256Z,79.20
2023-02-18T04:49:23.730Z,79.40
2023-02-18T04:51:50.215Z,79.40
2023-02-18T04:54:16.678Z,79.60
2023-02-18T04:56:43.137Z,79.60
2023-02-18T04:59:09.589Z,79.60
2023-02-18T05:01:36.087Z,79.40
2023-02-18T05:04:02.639Z,79.60
2023-02-18T05:06:29.153Z,79.70
2023-02-18T05:08:55.634Z,80.00
2023-02-18T05:11:22.102Z,79.80
2023-02-18T05:13:48.553Z,79.60
2023-02-18T05:16:15.097Z,79.60
2023-02-18T05:18:41.605Z,79.80
2023-02-18T05:21:08.134Z,79.90
2023-02-18T05:23:34.612Z,79.90
2023-02-18T05:26:01.100Z,80.30
2023-02-18T05:28:27.585Z,80.00
2023-02-18T05:30:54.076Z,80.10
2023-02-18T05:33:20.539Z,80.30
2023-02-18T05:35:47.031Z,80.00
2023-02-18T05:38:13.494Z,80.10
2023-02-18T05:40:39.988Z,80.00
2023-02-18T05:43:06.450Z,79.80
2023-02-18T05:45:32.931Z,79.80
2023-02-18T05:47:59.394Z,79.90
2023-02-18T05:50:25.874Z,79.80
2023-02-18T05:52:52.350Z,79.90
2023-02-18T05:58:08.993Z,79.90
2023-02-18T06:00:35.477Z,79.90
2023-02-18T06:03:02.024Z,79.70
2023-02-18T06:05:28.540Z,79.80
2023-02-18T06:07:56.714Z,80.20
2023-02-18T06:10:23.310Z,79.80
2023-02-18T06:12:50.070Z,80.00
2023-02-18T06:15:16.558Z,80.00
2023-02-18T06:17:43.024Z,80.00
2023-02-18T06:20:09.642Z,79.80
2023-02-18T06:22:36.126Z,80.00
2023-02-18T06:25:02.625Z,79.80
2023-02-18T06:27:29.115Z,79.70
2023-02-18T06:29:55.606Z,79.90
2023-02-18T06:32:22.242Z,79.80
2023-02-18T06:34:48.819Z,79.80
2023-02-18T06:37:15.305Z,80.20
2023-02-18T06:39:41.772Z,80.10
2023-02-18T06:42:08.251Z,79.90
2023-02-18T06:44:36.386Z,80.00
2023-02-18T06:47:04.264Z,80.20
2023-02-18T06:49:30.737Z,80.20
2023-02-18T06:51:57.206Z,80.10
2023-02-18T06:54:23.674Z,80.10
2023-02-18T06:56:50.170Z,80.10
2023-02-18T06:59:16.675Z,80.30
2023-02-18T07:01:43.146Z,80.30
2023-02-18T07:04:09.654Z,80.30
2023-02-18T07:06:36.276Z,80.20
2023-02-18T07:09:02.736Z,80.10
2023-02-18T07:11:29.220Z,80.20
2023-02-18T07:13:55.676Z,80.20
2023-02-18T07:16:22.208Z,80.10
2023-02-18T07:18:48.705Z,80.10
2023-02-18T07:21:15.187Z,80.30
2023-02-18T07:23:41.672Z,79.90
2023-02-18T07:26:08.627Z,79.90
2023-02-18T07:28:35.367Z,80.10
2023-02-18T07:31:01.913Z,80.10
2023-02-18T07:33:28.451Z,80.30
2023-02-18T07:35:54.936Z,80.10
2023-02-18T07:38:21.410Z,80.10
2023-02-18T07:40:47.872Z,80.00
2023-02-18T07:43:14.353Z,80.10
2023-02-18T07:45:40.826Z,80.10
2023-02-18T07:48:07.302Z,79.90
2023-02-18T07:50:33.783Z,79.90
2023-02-18T07:53:00.284Z,79.90
2023-02-18T07:55:26.764Z,79.70
2023-02-18T07:57:53.226Z,79.80
2023-02-18T08:00:19.686Z,79.70
2023-02-18T08:02:46.180Z,79.50
2023-02-18T08:05:17.200Z,79.60
2023-02-18T08:07:43.679Z,79.60
2023-02-18T08:10:10.144Z,79.80
2023-02-18T08:12:36.627Z,79.90
2023-02-18T08:15:03.092Z,80.60
2023-02-18T08:17:29.555Z,80.00
2023-02-18T08:19:56.009Z,79.90
2023-02-18T08:22:22.495Z,80.00
2023-02-18T08:24:48.974Z,80.00
2023-02-18T08:27:15.440Z,79.80
2023-02-18T08:29:41.918Z,79.80
2023-02-18T08:32:08.471Z,79.70
2023-02-18T08:34:34.968Z,79.50
2023-02-18T08:37:01.434Z,79.50
2023-02-18T08:39:27.890Z,79.50
2023-02-18T08:41:54.379Z,79.60
2023-02-18T08:44:20.861Z,79.60
2023-02-18T08:46:47.354Z,79.70
2023-02-18T08:49:13.877Z,79.60
2023-02-18T08:51:40.345Z,79.40
2023-02-18T08:54:06.823Z,79.10
2023-02-18T08:56:33.389Z,79.00
2023-02-18T08:58:59.858Z,79.00
2023-02-18T09:01:26.636Z,79.00
2023-02-18T09:03:53.205Z,79.20
2023-02-18T09:06:19.700Z,79.20
2023-02-18T09:08:47.180Z,79.80
2023-02-18T09:11:13.660Z,79.10
2023-02-18T09:13:40.157Z,79.00
2023-02-18T09:16:06.704Z,79.10
2023-02-18T09:18:33.215Z,79.00
2023-02-18T09:20:59.702Z,79.00
2023-02-18T09:23:29.222Z,79.20
2023-02-18T09:25:55.708Z,78.80
2023-02-18T09:28:22.188Z,78.70
2023-02-18T09:30:48.658Z,79.80
2023-02-18T09:33:15.141Z,78.60
2023-02-18T09:35:41.609Z,78.70
2023-02-18T09:38:08.081Z,78.70
2023-02-18T09:40:34.551Z,78.30
2023-02-18T09:43:01.202Z,78.40
2023-02-18T09:45:27.688Z,78.40
2023-02-18T09:47:54.155Z,78.10
2023-02-18T09:50:20.645Z,78.10
2023-02-18T09:52:47.137Z,78.10
2023-02-18T09:55:13.608Z,78.30
2023-02-18T09:57:40.087Z,78.00
2023-02-18T10:00:06.551Z,77.90
2023-02-18T10:02:33.046Z,77.50
2023-02-18T10:04:59.519Z,77.90
2023-02-18T10:07:28.386Z,77.80
2023-02-18T10:09:55.024Z,77.80
2023-02-18T10:12:21.488Z,77.60
2023-02-18T10:14:47.954Z,77.50
2023-02-18T10:17:14.413Z,77.70
2023-02-18T10:19:40.845Z,77.70
2023-02-18T10:22:07.321Z,77.70
2023-02-18T10:24:33.814Z,77.90
2023-02-18T10:27:00.280Z,77.90
2023-02-18T10:29:26.756Z,77.90
2023-02-18T10:31:53.362Z,78.00
2023-02-18T10:34:19.893Z,78.00
2023-02-18T10:36:46.376Z,77.80
2023-02-18T10:39:12.835Z,77.80
2023-02-18T10:41:39.288Z,78.00
2023-02-18T10:44:05.771Z,77.90
2023-02-18T10:46:32.258Z,77.50
2023-02-18T10:48:58.744Z,77.40
2023-02-18T10:51:25.198Z,77.60
2023-02-18T10:53:51.665Z,78.50
2023-02-18T10:56:18.171Z,77.60
2023-02-18T10:58:44.641Z,77.70
2023-02-18T11:01:11.338Z,77.90
2023-02-18T11:03:37.889Z,77.90
2023-02-18T11:06:04.374Z,77.80
2023-02-18T11:08:30.869Z,77.50
2023-02-18T11:10:57.346Z,77.70
2023-02-18T11:13:23.813Z,77.50
2023-02-18T11:15:50.283Z,77.40
2023-02-18T11:18:16.762Z,77.60
2023-02-18T11:20:43.259Z,77.50
2023-02-18T11:23:09.727Z,77.60
2023-02-18T11:25:36.186Z,77.70
2023-02-18T11:28:02.680Z,77.90
2023-02-18T11:30:29.169Z,77.90
2023-02-18T11:32:55.636Z,77.90
2023-02-18T11:35:22.099Z,77.90
2023-02-18T11:37:48.573Z,78.00
2023-02-18T11:40:15.055Z,78.40
2023-02-18T11:42:41.516Z,78.30
2023-02-18T11:45:07.998Z,78.00
2023-02-18T11:47:34.474Z,78.00
2023-02-18T11:50:00.959Z,78.10
2023-02-18T11:52:27.440Z,78.10
2023-02-18T11:54:53.920Z,78.10
2023-02-18T11:57:20.385Z,78.00
2023-02-18T11:59:46.867Z,77.90
2023-02-18T12:02:13.354Z,77.80
2023-02-18T12:04:39.837Z,78.10
2023-02-18T12:07:06.295Z,78.30
2023-02-18T12:09:32.763Z,78.00
2023-02-18T12:12:00.205Z,78.00
2023-02-18T12:14:26.794Z,78.10
2023-02-18T12:16:53.332Z,78.10
2023-02-18T12:19:19.981Z,78.30
2023-02-18T12:21:46.449Z,78.40
2023-02-18T12:24:12.943Z,78.50
2023-02-18T12:26:39.407Z,78.50
2023-02-18T12:29:05.875Z,78.60
2023-02-18T12:31:32.423Z,78.60
2023-02-18T12:33:59.008Z,78.50
2023-02-18T12:36:25.490Z,78.40
2023-02-18T12:38:51.969Z,78.60
2023-02-18T12:41:18.472Z,78.50
2023-02-18T12:43:47.358Z,78.40
2023-02-18T12:46:13.850Z,78.40
2023-02-18T12:48:40.348Z,78.50
2023-02-18T12:51:06.984Z,78.50
2023-02-18T12:53:33.630Z,78.50
2023-02-18T12:56:00.105Z,78.50
2023-02-18T12:58:26.579Z,78.50
2023-02-18T13:00:53.095Z,78.50
2023-02-18T13:03:19.608Z,78.70
2023-02-18T13:05:46.085Z,78.50
2023-02-18T13:08:12.550Z,78.50
2023-02-18T13:10:39.032Z,78.70
2023-02-18T13:13:05.493Z,78.50
2023-02-18T13:15:31.977Z,78.40
2023-02-18T13:17:58.452Z,78.50
2023-02-18T13:20:24.950Z,78.40
2023-02-18T13:22:51.430Z,78.60
2023-02-18T13:25:17.907Z,78.80
2023-02-18T13:27:44.374Z,78.60
2023-02-18T13:30:10.989Z,78.80
2023-02-18T13:32:37.531Z,79.00
2023-02-18T13:35:04.040Z,78.90
2023-02-18T13:37:30.533Z,78.90
2023-02-18T13:39:57.076Z,79.00
2023-02-18T13:42:23.554Z,78.80
2023-02-18T13:44:50.039Z,79.00
2023-02-18T13:47:16.529Z,79.00
2023-02-18T13:49:42.991Z,79.00
2023-02-18T13:52:09.453Z,78.80
2023-02-18T13:54:35.921Z,78.80
2023-02-18T13:57:02.403Z,78.90
2023-02-18T13:59:28.877Z,78.90
2023-02-18T14:01:55.397Z,78.90
2023-02-18T14:04:21.891Z,79.00
2023-02-18T14:06:48.350Z,79.00
2023-02-18T14:09:14.833Z,79.30
2023-02-18T14:11:41.316Z,79.30
2023-02-18T14:14:07.786Z,79.60
2023-02-18T14:16:34.261Z,79.00
2023-02-18T14:19:00.736Z,78.90
2023-02-18T14:21:27.216Z,79.00
2023-02-18T14:23:53.708Z,79.10
2023-02-18T14:26:20.202Z,79.20
2023-02-18T14:28:46.707Z,79.30
2023-02-18T14:31:13.769Z,79.10
2023-02-18T14:33:40.424Z,79.10
2023-02-18T14:36:06.880Z,79.20
2023-02-18T14:38:33.360Z,79.30
2023-02-18T14:40:59.846Z,79.30
2023-02-18T14:43:26.314Z,79.30
2023-02-18T14:45:52.785Z,79.30
2023-02-18T14:48:19.268Z,79.40
2023-02-18T14:50:45.729Z,79.20
2023-02-18T14:53:12.209Z,79.30
2023-02-18T14:55:38.668Z,79.20
2023-02-18T14:58:05.149Z,79.30
2023-02-18T15:00:31.648Z,79.00
2023-02-18T15:02:58.123Z,79.20
2023-02-18T15:05:24.599Z,79.30
2023-02-18T15:07:51.084Z,79.20
2023-02-18T15:10:17.564Z,79.20
2023-02-18T15:12:44.077Z,79.30
2023-02-18T15:15:10.558Z,79.40
2023-02-18T15:17:37.032Z,79.60
2023-02-18T15:20:03.533Z,79.50
2023-02-18T15:22:30.038Z,79.80
2023-02-18T15:24:56.494Z,79.70
2023-02-18T15:27:22.979Z,79.70
2023-02-18T15:29:49.453Z,79.80
2023-02-18T15:32:16.076Z,79.70
2023-02-18T15:34:42.645Z,79.60
2023-02-18T15:37:09.140Z,79.80
2023-02-18T15:39:35.608Z,80.00
2023-02-18T15:42:02.078Z,79.80
2023-02-18T15:44:28.545Z,79.70
2023-02-18T15:46:54.995Z,79.50
2023-02-18T15:49:21.463Z,79.80
2023-02-18T15:51:47.935Z,79.80
2023-02-18T15:54:14.483Z,80.00
2023-02-18T15:56:40.970Z,80.10
2023-02-18T15:59:07.429Z,79.80
2023-02-18T16:01:33.945Z,80.00
2023-02-18T16:04:00.421Z,80.00
2023-02-18T16:06:26.898Z,79.80
2023-02-18T16:08:53.370Z,79.80
2023-02-18T16:11:19.839Z,79.80
2023-02-18T16:13:46.314Z,79.90
2023-02-18T16:16:12.871Z,79.80
2023-02-18T16:18:39.387Z,79.50
2023-02-18T16:21:06.005Z,79.60
2023-02-18T16:23:32.466Z,79.80
2023-02-18T16:25:58.946Z,79.90
2023-02-18T16:28:25.431Z,79.90
2023-02-18T16:30:51.897Z,79.70
2023-02-18T16:33:18.378Z,79.80
2023-02-18T16:35:50.082Z,80.00
2023-02-18T16:38:17.102Z,79.80
2023-02-18T16:40:43.582Z,80.70
2023-02-18T16:43:10.084Z,79.80
2023-02-18T16:45:36.583Z,79.60
2023-02-18T16:48:03.073Z,80.00
2023-02-18T16:50:29.538Z,79.80
2023-02-18T16:52:56.020Z,79.90
2023-02-18T16:55:22.484Z,79.80
2023-02-18T16:57:48.960Z,79.80
2023-02-18T17:00:15.413Z,79.80
2023-02-18T17:02:41.885Z,79.70
2023-02-18T17:05:20.682Z,79.60
2023-02-18T17:07:52.088Z,79.50
2023-02-18T17:10:18.546Z,79.50
2023-02-18T17:12:45.063Z,79.50
2023-02-18T17:15:11.552Z,79.50
2023-02-18T17:17:38.027Z,79.80
2023-02-18T17:20:04.508Z,80.40
2023-02-18T17:22:30.984Z,79.80
2023-02-18T17:24:57.470Z,79.90
2023-02-18T17:27:23.953Z,79.50
2023-02-18T17:29:50.430Z,79.70
2023-02-18T17:32:16.983Z,79.80
2023-02-18T17:34:43.489Z,79.70
2023-02-18T17:37:09.970Z,79.70
2023-02-18T17:39:36.429Z,79.50
2023-02-18T17:42:02.902Z,80.30
2023-02-18T17:44:29.360Z,79.50
2023-02-18T17:46:55.838Z,79.60
2023-02-18T17:49:22.313Z,79.90
2023-02-18T17:51:48.850Z,79.80
2023-02-18T17:54:15.330Z,79.60
2023-02-18T17:56:41.795Z,79.40
2023-02-18T17:59:08.297Z,79.40
2023-02-18T18:01:34.816Z,79.30
2023-02-18T18:04:01.391Z,79.30
2023-02-18T18:06:27.879Z,79.50
2023-02-18T18:08:54.378Z,79.20
2023-02-18T18:11:20.860Z,79.20
2023-02-18T18:13:47.347Z,79.20
2023-02-18T18:16:13.901Z,79.30
2023-02-18T18:18:40.408Z,79.20
2023-02-18T18:21:07.084Z,79.20
2023-02-18T18:23:33.795Z,79.40
2023-02-18T18:26:00.297Z,79.40
2023-02-18T18:28:26.759Z,79.50
2023-02-18T18:30:53.262Z,79.70
2023-02-18T18:33:19.734Z,79.60
2023-02-18T18:35:46.237Z,79.50
2023-02-18T18:38:13.813Z,79.60
2023-02-18T18:40:40.303Z,79.50
2023-02-18T18:43:06.768Z,79.40
2023-02-18T18:45:33.246Z,79.60
2023-02-18T18:47:59.712Z,79.60
2023-02-18T18:50:26.183Z,79.50
2023-02-18T18:52:52.659Z,79.20
2023-02-18T18:55:19.148Z,79.40
2023-02-18T18:57:47.220Z,79.40
2023-02-18T19:00:13.798Z,79.50
2023-02-18T19:02:40.277Z,79.60
2023-02-18T19:05:06.775Z,79.60
2023-02-18T19:07:33.268Z,79.70
2023-02-18T19:09:59.729Z,79.60
2023-02-18T19:12:26.220Z,79.30
2023-02-18T19:14:52.682Z,79.60
2023-02-18T19:17:19.144Z,79.40
2023-02-18T19:19:45.654Z,79.30
2023-02-18T19:22:12.120Z,79.60
2023-02-18T19:24:38.595Z,79.60
2023-02-18T19:27:05.054Z,79.70
2023-02-18T19:29:31.544Z,79.60
2023-02-18T19:31:58.028Z,79.70
2023-02-18T19:34:24.513Z,79.60
2023-02-18T19:36:50.987Z,79.80
2023-02-18T19:39:17.445Z,79.60
2023-02-18T19:41:43.925Z,80.50
2023-02-18T19:44:10.387Z,79.60
2023-02-18T19:46:36.880Z,79.60
2023-02-18T19:49:03.385Z,79.50
2023-02-18T19:51:29.851Z,79.80
2023-02-18T19:53:56.323Z,79.80
2023-02-18T19:56:22.791Z,79.90
2023-02-18T19:58:49.278Z,79.90
2023-02-18T20:01:15.842Z,80.00
2023-02-18T20:03:42.400Z,80.20
2023-02-18T20:06:08.891Z,79.90
2023-02-18T20:08:35.376Z,79.90
2023-02-18T20:11:01.913Z,80.00
2023-02-18T20:13:28.403Z,80.80
2023-02-18T20:15:54.950Z,80.00
2023-02-18T20:18:21.440Z,79.90
2023-02-18T20:20:47.916Z,79.80
2023-02-18T20:23:14.388Z,80.00
2023-02-18T20:25:40.872Z,80.00
2023-02-18T20:28:07.351Z,80.10
2023-02-18T20:30:33.861Z,80.30
2023-02-18T20:33:00.391Z,80.20
2023-02-18T20:35:26.857Z,79.90
2023-02-18T20:37:53.319Z,79.90
2023-02-18T20:40:19.825Z,80.00
2023-02-18T20:42:46.303Z,79.90
2023-02-18T20:45:12.785Z,80.00
2023-02-18T20:47:39.277Z,79.70
2023-02-18T20:50:05.730Z,79.90
2023-02-18T20:52:34.596Z,79.80
2023-02-18T20:55:01.287Z,79.80
2023-02-18T20:57:27.794Z,79.60
2023-02-18T20:59:54.284Z,79.50
2023-02-18T21:02:20.786Z,79.40
2023-02-18T21:04:47.280Z,79.50
2023-02-18T21:07:13.770Z,79.80
2023-02-18T21:09:40.227Z,79.90
2023-02-18T21:12:06.728Z,80.10
2023-02-18T21:14:33.252Z,80.00
2023-02-18T21:16:59.768Z,80.00
2023-02-18T21:19:26.260Z,80.00
2023-02-18T21:21:52.786Z,80.00
2023-02-18T21:24:19.273Z,80.10
2023-02-18T21:26:45.764Z,80.30
2023-02-18T21:29:12.241Z,80.10
2023-02-18T21:31:38.812Z,80.10
2023-02-18T21:34:05.350Z,79.90
2023-02-18T21:36:31.840Z,79.90
2023-02-18T21:38:58.324Z,79.90
2023-02-18T21:41:24.848Z,79.90
2023-02-18T21:43:51.343Z,79.90
2023-02-18T21:46:17.911Z,80.00
2023-02-18T21:48:44.401Z,80.00
2023-02-18T21:51:11.080Z,79.90
2023-02-18T21:53:37.710Z,79.80
2023-02-18T21:56:04.184Z,79.70
2023-02-18T21:58:30.655Z,79.90
2023-02-18T22:00:57.161Z,79.90
2023-02-18T22:03:23.657Z,79.90
2023-02-18T22:05:50.176Z,79.90
2023-02-18T22:08:16.645Z,79.90
2023-02-18T22:10:43.138Z,79.70
2023-02-18T22:13:09.600Z,79.50
2023-02-18T22:15:36.075Z,79.60
2023-02-18T22:18:02.544Z,79.80
2023-02-18T22:20:29.032Z,79.90
2023-02-18T22:22:55.497Z,79.60
2023-02-18T22:25:21.962Z,79.90
2023-02-18T22:27:53.878Z,79.80
2023-02-18T22:30:20.421Z,80.00
2023-02-18T22:32:47.006Z,80.00
2023-02-18T22:35:15.630Z,80.30
2023-02-18T22:37:43.097Z,80.20
2023-02-18T22:40:09.568Z,80.20
2023-02-18T22:42:36.041Z,80.10
2023-02-18T22:45:02.497Z,80.00
2023-02-18T22:47:28.963Z,80.00
2023-02-18T22:49:55.433Z,79.80
2023-02-18T22:52:21.910Z,79.80
2023-02-18T22:54:48.382Z,79.80
2023-02-18T22:57:14.862Z,79.80
2023-02-18T22:59:41.332Z,80.00
2023-02-18T23:02:07.807Z,80.00
2023-02-18T23:04:34.263Z,80.10
2023-02-18T23:07:00.787Z,79.90
2023-02-18T23:09:27.273Z,80.00
2023-02-18T23:11:53.771Z,80.00
2023-02-18T23:14:20.244Z,80.00
2023-02-18T23:16:46.868Z,80.90
2023-02-18T23:19:13.400Z,80.10
2023-02-18T23:21:39.885Z,80.00
2023-02-18T23:24:06.346Z,79.90
2023-02-18T23:26:32.855Z,80.00
2023-02-18T23:28:59.320Z,80.10
2023-02-18T23:31:25.930Z,80.20
2023-02-18T23:33:52.472Z,80.30
2023-02-18T23:36:18.986Z,81.10
2023-02-18T23:38:45.463Z,80.40
2023-02-18T23:41:12.157Z,80.30
2023-02-18T23:43:38.716Z,80.50
2023-02-18T23:46:05.233Z,80.30
2023-02-18T23:48:31.713Z,80.40
2023-02-18T23:50:58.280Z,80.70
2023-02-18T23:53:24.743Z,80.70
2023-02-18T23:55:51.247Z,80.60
2023-02-18T23:58:17.719Z,80.20
